Time;durP1;ratioP1;P1;durP2;ratioP2;P2;SDS_P1;SDS_P2;PMS_P1;PMS_P2;Temp;Humidity;BMP_temperature;BMP_pressure;BME280_temperature;BME280_humidity;BME280_pressure;Samples;Min_cycle;Max_cycle;Signal;HPM_P1;HPM_P2
2022/06/21 00:00:47;;;;;;;7.00;6.30;;;;;;;18.80;100.00;100065.61;1742490;81;20960;-82
2022/06/21 00:03:19;;;;;;;6.20;5.55;;;;;;;18.73;100.00;100059.75;1742813;82;21209;-82
2022/06/21 00:05:49;;;;;;;9.38;5.95;;;;;;;18.67;100.00;100051.23;1738889;81;21672;-84
2022/06/21 00:08:30;;;;;;;5.75;5.17;;;;;;;18.65;100.00;100049.30;1734621;82;21004;-83
2022/06/21 00:10:58;;;;;;;6.28;5.67;;;;;;;18.64;100.00;100050.78;1784847;80;20998;-83
2022/06/21 00:13:30;;;;;;;8.10;5.92;;;;;;;18.64;100.00;100044.19;1785170;80;20986;-83
2022/06/21 00:16:10;;;;;;;7.33;5.70;;;;;;;18.62;100.00;100036.47;1785035;80;20998;-82
2022/06/21 00:18:39;;;;;;;8.10;6.70;;;;;;;18.62;100.00;100038.30;1738375;81;21091;-82
2022/06/21 00:21:13;;;;;;;13.72;8.13;;;;;;;18.58;100.00;100041.28;1734793;82;20980;-82
2022/06/21 00:23:40;;;;;;;12.68;8.53;;;;;;;18.57;100.00;100033.57;1780121;80;21038;-82
2022/06/21 00:26:13;;;;;;;14.15;9.85;;;;;;;18.52;100.00;100026.20;1785221;80;21077;-83
2022/06/21 00:28:41;;;;;;;18.20;10.75;;;;;;;18.50;100.00;100028.20;1785003;80;21908;-81
2022/06/21 00:31:23;;;;;;;17.40;11.08;;;;;;;18.45;100.00;100022.15;1785123;80;21037;-82
2022/06/21 00:33:50;;;;;;;17.02;10.82;;;;;;;18.37;100.00;100024.06;1782571;80;21068;-82
2022/06/21 00:36:26;;;;;;;13.83;10.38;;;;;;;18.26;100.00;100020.87;1742646;82;21534;-82
2022/06/21 00:38:56;;;;;;;13.88;9.85;;;;;;;18.18;100.00;100024.91;1739908;81;21028;-82
2022/06/21 00:41:41;;;;;;;13.60;9.40;;;;;;;18.17;100.00;100023.77;1734703;82;21565;-82
2022/06/21 00:44:19;;;;;;;11.28;8.20;;;;;;;18.17;100.00;100021.94;1782280;80;21769;-82
2022/06/21 00:47:01;;;;;;;12.37;7.75;;;;;;;18.18;100.00;100018.83;1779356;80;21053;-82
2022/06/21 00:49:36;;;;;;;11.93;7.67;;;;;;;18.17;100.00;100020.63;1785217;80;20938;-82
2022/06/21 00:52:08;;;;;;;10.90;8.10;;;;;;;18.19;100.00;100019.95;1784884;80;20990;-84
2022/06/21 00:54:54;;;;;;;12.07;8.60;;;;;;;18.22;100.00;100016.97;1777788;80;21361;-82
2022/06/21 00:57:27;;;;;;;13.95;9.68;;;;;;;18.23;100.00;100019.90;1781316;80;21025;-82
2022/06/21 00:59:58;;;;;;;15.28;9.73;;;;;;;18.20;100.00;100024.23;1773712;80;21492;-82
2022/06/21 01:02:34;;;;;;;12.78;9.50;;;;;;;18.16;100.00;100016.86;1776750;80;21445;-82
2022/06/21 01:05:04;;;;;;;15.00;9.70;;;;;;;18.10;100.00;100021.86;1730344;82;21574;-85
2022/06/21 01:07:32;;;;;;;16.27;10.10;;;;;;;18.08;100.00;100020.37;1732089;81;21274;-82
2022/06/21 01:10:07;;;;;;;14.58;9.90;;;;;;;18.07;100.00;100012.16;1731643;82;21091;-82
2022/06/21 01:12:54;;;;;;;15.20;10.03;;;;;;;18.09;100.00;100015.44;1704917;82;34068;-82
2022/06/21 01:15:31;;;;;;;13.38;9.75;;;;;;;18.10;100.00;100012.64;1728137;81;21040;-82
2022/06/21 01:18:05;;;;;;;11.57;9.18;;;;;;;18.13;100.00;100012.77;1729206;81;21322;-82
2022/06/21 01:20:38;;;;;;;10.25;8.03;;;;;;;18.13;100.00;100004.88;1732256;81;21277;-83
2022/06/21 01:23:30;;;;;;;11.50;8.30;;;;;;;18.12;100.00;100005.86;1731899;81;21048;-82
2022/06/21 01:26:47;;;;;;;10.48;9.28;;;;;;;18.10;100.00;100014.44;1732136;81;21095;-83
2022/06/21 01:29:19;;;;;;;12.98;10.38;;;;;;;18.06;100.00;100012.67;1731593;81;21088;-82
2022/06/21 01:31:48;;;;;;;12.55;10.55;;;;;;;18.05;100.00;100016.30;1729212;82;20965;-82
2022/06/21 01:34:20;;;;;;;14.90;10.75;;;;;;;18.05;100.00;100019.44;1732169;82;21138;-82
2022/06/21 01:36:56;;;;;;;13.75;10.78;;;;;;;18.06;100.00;100018.45;1731926;81;21123;-85
2022/06/21 01:39:46;;;;;;;13.48;10.55;;;;;;;18.05;100.00;100018.12;1727457;81;21895;-82
2022/06/21 01:42:22;;;;;;;17.55;10.50;;;;;;;18.03;100.00;100017.48;1732153;81;21040;-82
2022/06/21 01:44:53;;;;;;;11.48;9.85;;;;;;;18.02;100.00;100007.93;1722446;81;21110;-82
2022/06/21 01:47:29;;;;;;;19.12;11.10;;;;;;;18.00;100.00;100012.07;1732279;82;21163;-83
2022/06/21 01:50:00;;;;;;;16.30;10.40;;;;;;;17.98;100.00;100007.47;1728930;81;20989;-82
2022/06/21 01:52:31;;;;;;;15.08;9.65;;;;;;;17.96;100.00;100010.78;1729086;81;20974;-83
2022/06/21 01:55:07;;;;;;;11.75;9.03;;;;;;;17.96;100.00;100010.30;1732266;81;21060;-84
2022/06/21 01:57:36;;;;;;;11.22;8.98;;;;;;;17.99;100.00;100007.80;1731654;81;21554;-85
2022/06/21 02:00:07;;;;;;;13.50;8.60;;;;;;;18.00;100.00;100010.75;1732549;80;21156;-82
2022/06/21 02:02:45;;;;;;;13.83;8.25;;;;;;;18.01;100.00;100008.44;1769861;80;21713;-83
2022/06/21 02:05:33;;;;;;;12.68;8.33;;;;;;;18.01;100.00;100009.76;1764175;81;21057;-82
2022/06/21 02:08:06;;;;;;;9.98;7.85;;;;;;;18.01;100.00;100003.17;1767574;81;21017;-83
2022/06/21 02:10:47;;;;;;;9.90;7.50;;;;;;;18.02;100.00;100000.87;1767289;81;20995;-82
2022/06/21 02:13:24;;;;;;;8.60;6.42;;;;;;;18.04;100.00;100000.67;1768634;81;21219;-83
2022/06/21 02:16:02;;;;;;;8.20;6.03;;;;;;;18.02;100.00;99999.55;1763777;79;21061;-83
2022/06/21 02:18:36;;;;;;;9.20;6.45;;;;;;;18.00;100.00;99999.38;1767798;81;21026;-83
2022/06/21 02:21:29;;;;;;;7.37;6.40;;;;;;;17.97;100.00;100000.08;1729420;82;21043;-83
2022/06/21 02:23:58;;;;;;;7.08;6.33;;;;;;;17.97;100.00;99996.13;1728966;82;21501;-82
2022/06/21 02:26:29;;;;;;;8.70;6.47;;;;;;;17.97;100.00;100000.08;1769824;81;21134;-84
2022/06/21 02:28:59;;;;;;;7.58;6.67;;;;;;;17.95;100.00;99994.16;1733219;82;21051;-83
2022/06/21 02:31:27;;;;;;;7.87;6.67;;;;;;;17.93;100.00;99992.17;1769442;79;21045;-82
2022/06/21 02:34:00;;;;;;;7.37;6.67;;;;;;;17.92;100.00;99989.73;1733360;82;21043;-83
2022/06/21 02:36:35;;;;;;;9.33;7.33;;;;;;;17.90;100.00;99984.65;1729535;82;21004;-82
2022/06/21 02:39:06;;;;;;;8.58;6.95;;;;;;;17.90;100.00;99987.77;1729097;82;21176;-82
2022/06/21 02:41:42;;;;;;;;;;;;;;;17.90;100.00;99985.13;1735038;82;21106;-83
2022/06/21 02:44:23;;;;;;;7.22;6.53;;;;;;;17.91;100.00;99978.87;1733602;82;20176;-82
2022/06/21 02:46:56;;;;;;;10.35;7.45;;;;;;;17.92;100.00;99988.41;1766081;79;21018;-82
2022/06/21 02:49:34;;;;;;;10.18;7.47;;;;;;;17.99;100.00;99983.28;1733321;82;21082;-83
2022/06/21 02:52:13;;;;;;;10.75;8.80;;;;;;;18.06;100.00;99980.25;1770089;79;21255;-84
2022/06/21 02:54:54;;;;;;;12.78;9.53;;;;;;;18.14;100.00;99985.44;1732915;82;21102;-82
2022/06/21 02:57:43;;;;;;;14.83;8.83;;;;;;;18.18;100.00;99978.80;1733645;82;21038;-88
2022/06/21 03:00:16;;;;;;;17.62;9.78;;;;;;;18.20;100.00;99983.39;1724325;82;21578;-83
2022/06/21 03:02:44;;;;;;;17.42;10.82;;;;;;;18.20;100.00;99982.07;1732508;81;21030;-83
2022/06/21 03:05:20;;;;;;;14.93;11.28;;;;;;;18.20;100.00;99983.88;1746375;82;21142;-82
2022/06/21 03:07:54;;;;;;;12.98;11.10;;;;;;;18.20;100.00;99988.66;1735872;82;21821;-84
2022/06/21 03:10:36;;;;;;;12.58;10.78;;;;;;;18.23;100.00;99986.96;1715060;83;21066;-82
2022/06/21 03:13:12;;;;;;;17.70;12.55;;;;;;;18.29;100.00;99987.58;1711672;83;21038;-84
2022/06/21 03:15:46;;;;;;;22.67;14.10;;;;;;;18.39;100.00;99982.52;1715091;83;21019;-83
2022/06/21 03:18:23;;;;;;;18.52;12.85;;;;;;;18.48;100.00;99975.34;1715262;83;21072;-82
2022/06/21 03:20:52;;;;;;;18.87;14.85;;;;;;;18.56;100.00;99974.73;1712002;83;21007;-83
2022/06/21 03:23:20;;;;;;;20.77;14.80;;;;;;;18.71;100.00;99975.21;1690829;83;21131;-82
2022/06/21 03:25:52;;;;;;;27.85;16.30;;;;;;;18.83;100.00;99975.06;1715054;83;21066;-82
2022/06/21 03:28:34;;;;;;;24.45;17.50;;;;;;;18.97;100.00;99971.28;1715328;83;20963;-82
2022/06/21 03:31:27;;;;;;;26.87;16.25;;;;;;;19.11;100.00;99969.61;1714692;83;21088;-82
2022/06/21 03:34:02;;;;;;;28.17;18.25;;;;;;;19.26;100.00;99961.66;1714833;83;21046;-83
2022/06/21 03:36:30;;;;;;;29.52;17.87;;;;;;;19.43;100.00;99959.05;1714953;83;21085;-86
2022/06/21 03:39:10;;;;;;;25.23;18.77;;;;;;;19.60;100.00;99961.42;1715120;83;21090;-83
2022/06/21 03:41:43;;;;;;;26.77;18.48;;;;;;;19.75;100.00;99952.10;1715096;83;21176;-82
2022/06/21 03:44:28;;;;;;;29.25;19.10;;;;;;;19.92;100.00;99956.61;1715117;83;21185;-86
2022/06/21 03:47:03;;;;;;;28.83;18.92;;;;;;;20.07;100.00;99958.64;1711457;83;21050;-82
2022/06/21 03:50:07;;;;;;;32.42;19.52;;;;;;;20.25;100.00;99955.52;1711646;83;21015;-83
2022/06/21 03:53:02;;;;;;;28.12;19.37;;;;;;;20.42;100.00;99951.22;1715122;83;21014;-84
2022/06/21 03:55:53;;;;;;;30.37;18.70;;;;;;;20.61;100.00;99945.70;1714773;83;21077;-83
2022/06/21 03:58:47;;;;;;;22.37;14.65;;;;;;;20.80;100.00;99944.97;1715151;83;21102;-83
2022/06/21 04:01:48;;;;;;;20.88;12.75;;;;;;;20.95;100.00;99947.47;1724493;83;20999;-82
2022/06/21 04:04:41;;;;;;;20.15;12.98;;;;;;;21.08;100.00;99945.36;1732656;82;21159;-83
2022/06/21 04:07:26;;;;;;;18.02;12.13;;;;;;;21.22;100.00;99942.72;1701099;83;21054;-82
2022/06/21 04:10:16;;;;;;;15.68;11.83;;;;;;;21.38;100.00;99949.47;1728319;82;21006;-82
2022/06/21 04:12:49;;;;;;;14.60;9.50;;;;;;;21.50;100.00;99950.48;1730655;83;21140;-83
2022/06/21 04:15:30;;;;;;;11.90;7.58;;;;;;;21.64;100.00;99946.03;1727834;82;21026;-83
2022/06/21 04:18:06;;;;;;;9.10;7.40;;;;;;;21.76;100.00;99940.92;1730014;82;20982;-83
2022/06/21 04:21:03;;;;;;;9.75;7.30;;;;;;;21.89;100.00;99938.77;1726876;83;21057;-86
2022/06/21 04:24:02;;;;;;;10.30;7.35;;;;;;;22.03;100.00;99943.02;1729687;82;20971;-82
2022/06/21 04:26:41;;;;;;;9.70;7.00;;;;;;;22.18;100.00;99936.16;1725603;83;21161;-82
2022/06/21 04:29:20;;;;;;;9.30;6.40;;;;;;;22.32;100.00;99925.50;1732496;82;21054;-82
2022/06/21 04:31:57;;;;;;;10.30;6.83;;;;;;;22.46;100.00;99922.33;1727783;83;21533;-86
2022/06/21 04:34:45;;;;;;;7.22;6.35;;;;;;;22.57;100.00;99916.34;1728178;83;21033;-82
2022/06/21 04:37:45;;;;;;;11.33;6.20;;;;;;;22.73;100.00;99912.89;1729603;83;21018;-84
2022/06/21 04:40:26;;;;;;;10.80;6.12;;;;;;;22.87;100.00;99913.63;1731934;82;21817;-84
2022/06/21 04:43:20;;;;;;;6.30;5.70;;;;;;;23.02;100.00;99912.81;1726120;83;21080;-83
2022/06/21 04:46:23;;;;;;;7.62;5.95;;;;;;;23.14;100.00;99900.98;1743826;81;21057;-84
2022/06/21 04:49:21;;;;;;;6.78;5.62;;;;;;;23.26;100.00;99906.44;1663131;85;21041;-82
2022/06/21 04:51:56;;;;;;;8.60;5.85;;;;;;;23.39;100.00;99906.85;1737097;81;21010;-84
2022/06/21 04:54:28;;;;;;;7.40;6.58;;;;;;;23.50;100.00;99907.48;1762250;81;21743;-82
2022/06/21 04:57:04;;;;;;;8.40;6.30;;;;;;;23.61;100.00;99897.98;1692493;82;21008;-83
2022/06/21 04:59:46;;;;;;;7.37;5.72;;;;;;;23.74;100.00;99902.36;1719900;83;21054;-83
2022/06/21 05:02:28;;;;;;;7.47;6.30;;;;;;;23.86;100.00;99899.25;1765283;80;21635;-85
2022/06/21 05:05:07;;;;;;;8.70;6.15;;;;;;;23.99;100.00;99903.64;1713739;81;20948;-83
2022/06/21 05:07:39;;;;;;;7.17;5.80;;;;;;;24.08;100.00;99893.52;1688153;83;21180;-83
2022/06/21 05:10:11;;;;;;;10.60;6.10;;;;;;;24.16;100.00;99899.06;1759753;81;21078;-84
2022/06/21 05:12:42;;;;;;;9.93;6.00;;;;;;;24.23;100.00;99897.96;1732083;81;21151;-82
2022/06/21 05:15:19;;;;;;;9.75;5.83;;;;;;;24.33;100.00;99896.59;1735420;81;21124;-85
2022/06/21 05:18:19;;;;;;;7.37;5.78;;;;;;;24.45;100.00;99892.16;1705318;84;21565;-83
2022/06/21 05:20:54;;;;;;;11.12;6.00;;;;;;;24.54;100.00;99894.80;1701779;84;21262;-86
2022/06/21 05:23:24;;;;;;;9.40;6.40;;;;;;;24.64;100.00;99889.43;1704170;84;21029;-86
2022/06/21 05:25:52;;;;;;;10.72;6.55;;;;;;;24.71;100.00;99884.35;1705794;84;21022;-83
2022/06/21 05:28:48;;;;;;;11.00;7.35;;;;;;;24.81;100.00;99885.13;1705526;82;21088;-84
2022/06/21 05:31:23;;;;;;;9.53;6.95;;;;;;;24.94;100.00;99888.64;1717070;81;21089;-83
2022/06/21 05:33:59;;;;;;;11.25;7.55;;;;;;;25.07;100.00;99883.10;1703119;83;21856;-83
2022/06/21 05:36:33;;;;;;;14.63;7.95;;;;;;;25.15;100.00;99881.44;1718598;82;21485;-84
2022/06/21 05:39:07;;;;;;;15.43;7.60;;;;;;;25.26;100.00;99881.15;1731548;82;21098;-83
2022/06/21 05:41:39;;;;;;;9.18;7.22;;;;;;;25.39;100.00;99876.69;1727754;82;21042;-83
2022/06/21 05:44:14;;;;;;;8.58;6.90;;;;;;;25.50;100.00;99879.86;1735165;82;21047;-83
2022/06/21 05:46:49;;;;;;;11.83;7.28;;;;;;;25.57;100.00;99873.08;1735453;82;21772;-88
2022/06/21 05:49:26;;;;;;;8.53;6.05;;;;;;;25.66;100.00;99870.36;1730860;82;21020;-83
2022/06/21 05:51:57;;;;;;;11.83;6.80;;;;;;;25.77;100.00;99867.38;1735564;82;21007;-83
2022/06/21 05:54:32;;;;;;;8.53;6.58;;;;;;;25.87;100.00;99865.44;1735390;82;21019;-84
2022/06/21 05:57:03;;;;;;;10.32;7.03;;;;;;;25.98;100.00;99863.28;1729753;82;21067;-83
2022/06/21 05:59:30;;;;;;;;;;;;;;;26.08;100.00;99855.50;1737890;82;21258;-84
2022/06/21 06:02:08;;;;;;;7.45;6.62;;;;;;;26.17;100.00;99852.45;1756438;81;20134;-83
2022/06/21 06:05:12;;;;;;;12.45;6.70;;;;;;;26.25;100.00;99852.08;1763879;81;21132;-84
2022/06/21 06:07:53;;;;;;;10.93;6.62;;;;;;;26.36;100.00;99848.56;1758739;81;21026;-83
2022/06/21 06:10:23;;;;;;;9.90;6.78;;;;;;;26.48;100.00;99846.38;1775778;80;20946;-83
2022/06/21 06:12:55;;;;;;;6.80;5.85;;;;;;;26.57;100.00;99842.24;1770202;81;21131;-83
2022/06/21 06:15:32;;;;;;;13.98;7.08;;;;;;;26.66;100.00;99836.00;1733676;81;21076;-83
2022/06/21 06:18:33;;;;;;;10.05;6.60;;;;;;;26.74;100.00;99836.41;1798960;78;20997;-83
2022/06/21 06:21:26;;;;;;;11.30;6.30;;;;;;;26.85;100.00;99836.61;1797382;78;21068;-86
2022/06/21 06:24:09;;;;;;;10.32;5.53;;;;;;;26.96;100.00;99833.57;1763844;80;20984;-83
2022/06/21 06:26:42;;;;;;;6.50;5.15;;;;;;;27.03;100.00;99830.20;1731841;82;21797;-88
2022/06/21 06:29:30;;;;;;;8.90;5.12;;;;;;;27.11;100.00;99828.45;1801514;79;20926;-85
2022/06/21 06:32:08;;;;;;;5.17;4.67;;;;;;;27.18;100.00;99826.42;1760955;80;21057;-84
2022/06/21 06:34:42;;;;;;;8.35;5.15;;;;;;;27.29;97.72;99826.04;1801923;78;20994;-84
2022/06/21 06:37:22;;;;;;;5.42;4.80;;;;;;;27.41;100.00;99820.59;1760539;80;21076;-83
2022/06/21 06:39:49;;;;;;;5.87;4.53;;;;;;;27.51;96.14;99821.30;1800996;79;21262;-83
2022/06/21 06:42:24;;;;;;;11.97;4.83;;;;;;;27.57;92.30;99816.81;1763730;81;21617;-84
2022/06/21 06:44:58;;;;;;;6.08;4.45;;;;;;;27.64;98.50;99815.58;1801940;79;21053;-84
2022/06/21 06:47:39;;;;;;;7.72;5.10;;;;;;;27.78;88.73;99815.20;1759863;81;21025;-83
2022/06/21 06:50:25;;;;;;;7.08;4.55;;;;;;;27.88;85.68;99811.86;1802492;78;21057;-84
2022/06/21 06:53:15;;;;;;;9.23;4.40;;;;;;;27.94;83.36;99805.50;1762049;80;21319;-84
2022/06/21 06:56:00;;;;;;;7.47;4.95;;;;;;;27.99;80.56;99807.71;1799103;78;21088;-85
2022/06/21 06:58:35;;;;;;;7.15;4.83;;;;;;;28.06;90.26;99808.03;1779862;79;20998;-84
2022/06/21 07:01:08;;;;;;;10.95;5.00;;;;;;;28.11;77.61;99804.09;1747917;81;20986;-84
2022/06/21 07:03:40;;;;;;;5.20;4.35;;;;;;;28.17;88.96;99801.23;1751229;81;21092;-84
2022/06/21 07:06:25;;;;;;;7.10;4.35;;;;;;;28.26;78.10;99797.55;1798464;78;21929;-86
2022/06/21 07:21:10;;;;;;;4.92;4.35;;;;;;;28.70;73.74;99789.13;1735190;81;22071;-84
2022/06/21 07:23:37;;;;;;;8.45;5.25;;;;;;;28.86;69.00;99796.22;1701495;82;21142;-83
2022/06/21 07:43:04;;;;;;;9.80;6.03;;;;;;;29.57;66.00;99776.27;1683225;84;21054;-83
2022/06/21 07:54:46;;;;;;;5.87;4.97;;;;;;;29.92;57.44;99765.92;1735044;81;21040;-85
2022/06/21 07:57:18;;;;;;;7.17;5.00;;;;;;;30.09;53.58;99759.52;1720114;83;21098;-85
2022/06/21 08:34:01;;;;;;;4.28;3.52;;;;;;;30.37;48.49;99723.29;1711737;82;21511;-85
2022/06/21 08:45:42;;;;;;;5.28;3.70;;;;;;;30.40;50.59;99707.99;1688506;83;21038;-85
2022/06/21 08:57:44;;;;;;;5.62;4.20;;;;;;;30.59;52.57;99699.39;1699473;83;21041;-85
2022/06/21 09:04:19;;;;;;;4.37;3.98;;;;;;;31.07;52.61;99691.73;1705963;83;21007;-83
2022/06/21 09:07:07;;;;;;;4.70;4.28;;;;;;;31.18;49.66;99686.35;1672678;85;21608;-84
2022/06/21 09:18:11;;;;;;;5.60;3.67;;;;;;;31.40;47.71;99681.40;1707392;82;21194;-84
2022/06/21 09:20:43;;;;;;;4.67;4.17;;;;;;;31.62;48.82;99670.25;1714458;82;21070;-84
2022/06/21 11:12:56;;;;;;;3.42;3.15;;;;;;;33.25;40.30;99532.53;1685354;84;21082;-83
2022/06/21 11:15:50;;;;;;;5.20;3.45;;;;;;;33.32;40.82;99528.94;1686705;84;21675;-84
2022/06/21 14:30:12;;;;;;;3.77;3.00;;;;;;;33.38;37.01;99287.45;1636121;86;21027;-83
2022/06/21 14:41:34;;;;;;;3.25;2.80;;;;;;;33.48;37.33;99296.69;1700692;82;21459;-83
2022/06/21 15:01:00;;;;;;;5.65;3.02;;;;;;;32.80;38.25;99289.02;1678558;84;21578;-82
2022/06/21 15:03:57;;;;;;;10.35;3.15;;;;;;;32.81;39.03;99289.84;1643407;85;21283;-82
2022/06/21 15:06:32;;;;;;;3.75;2.95;;;;;;;32.87;39.50;99284.60;1627497;87;21079;-86
2022/06/21 15:17:42;;;;;;;5.85;2.85;;;;;;;32.93;37.24;99275.32;1638490;86;21472;-82
2022/06/21 15:20:31;;;;;;;3.45;2.45;;;;;;;32.43;36.79;99265.64;1668574;85;21146;-83
2022/06/21 16:03:20;;;;;;;4.92;3.10;;;;;;;31.42;37.76;99251.66;1710037;83;21459;-83
2022/06/21 16:05:56;;;;;;;5.03;3.02;;;;;;;31.25;37.62;99254.02;1696450;84;21720;-84
2022/06/21 16:20:49;;;;;;;4.78;3.35;;;;;;;30.59;39.72;99246.84;1636901;86;20130;-83
2022/06/21 16:23:24;;;;;;;5.72;3.42;;;;;;;30.44;40.94;99245.86;1639194;85;21072;-87
2022/06/21 16:25:57;;;;;;;7.40;3.65;;;;;;;30.34;40.79;99237.36;1673781;84;21067;-85
2022/06/21 16:36:36;;;;;;;4.28;3.30;;;;;;;30.08;43.11;99233.25;1684678;83;21767;-85
2022/06/21 16:43:23;;;;;;;9.65;3.60;;;;;;;29.78;45.11;99234.47;1679813;84;21640;-85
2022/06/21 16:54:39;;;;;;;4.08;3.50;;;;;;;29.37;46.51;99226.61;1685441;84;21035;-84
2022/06/21 16:57:11;;;;;;;5.10;3.70;;;;;;;29.08;46.94;99225.36;1668312;85;21031;-84
2022/06/21 17:00:30;;;;;;;5.80;3.92;;;;;;;28.94;47.54;99223.78;1712432;83;21093;-84
2022/06/21 17:03:14;;;;;;;6.03;4.12;;;;;;;28.82;47.97;99225.94;1712193;83;21090;-84
2022/06/21 17:06:10;;;;;;;6.22;3.87;;;;;;;28.69;49.12;99223.79;1697587;83;21773;-87
2022/06/21 17:17:17;;;;;;;11.45;4.28;;;;;;;28.31;54.81;99218.20;1706014;82;21045;-83
2022/06/21 17:24:15;;;;;;;14.43;4.50;;;;;;;28.03;60.17;99217.59;1637311;86;21588;-85
2022/06/21 17:35:12;;;;;;;16.77;4.80;;;;;;;27.55;64.14;99211.59;1624991;88;21047;-83
2022/06/21 17:42:18;;;;;;;16.00;4.53;;;;;;;27.27;63.19;99207.44;1635157;86;21164;-83
2022/06/21 17:45:11;;;;;;;12.82;5.83;;;;;;;27.12;64.32;99200.97;1651954;84;21086;-84
2022/06/21 18:18:32;;;;;;;9.88;5.47;;;;;;;25.14;82.54;99214.00;1648578;86;21109;-84
2022/06/21 18:38:03;;;;;;;9.65;7.20;;;;;;;23.44;100.00;99207.09;1693320;84;21024;-84
2022/06/21 18:54:20;;;;;;;37.05;7.80;;;;;;;22.65;100.00;99210.41;1651497;85;21071;-83
2022/06/21 19:13:23;;;;;;;23.75;5.28;;;;;;;22.08;100.00;99197.59;1709998;79;21114;-82
2022/06/21 19:16:01;;;;;;;12.33;5.30;;;;;;;22.01;100.00;99196.88;1778853;79;21572;-83
2022/06/21 19:18:59;;;;;;;9.30;5.00;;;;;;;21.97;100.00;99198.34;1769891;79;21284;-85
2022/06/21 19:21:40;;;;;;;7.35;5.50;;;;;;;21.97;100.00;99210.27;1744702;80;21541;-83
2022/06/21 19:24:37;;;;;;;12.25;5.17;;;;;;;21.99;100.00;99204.23;1768196;79;20978;-83
2022/06/21 19:27:34;;;;;;;12.37;6.12;;;;;;;22.02;100.00;99214.39;1769266;79;21121;-84
2022/06/21 19:30:36;;;;;;;13.25;7.42;;;;;;;22.08;100.00;99228.06;1775118;79;21006;-82
2022/06/21 19:33:41;;;;;;;11.93;6.25;;;;;;;22.22;95.43;99226.84;1773630;79;21996;-87
2022/06/21 19:36:20;;;;;;;7.42;5.65;;;;;;;22.51;83.13;99222.27;1768162;79;21565;-84
2022/06/21 19:39:18;;;;;;;9.45;5.55;;;;;;;22.84;85.55;99227.03;1765983;78;21034;-83
2022/06/21 19:42:11;;;;;;;11.53;5.45;;;;;;;23.01;92.62;99227.66;1716848;82;21038;-86
2022/06/21 19:45:19;;;;;;;7.42;5.30;;;;;;;23.07;94.57;99241.87;1688655;83;21098;-83
2022/06/21 19:47:57;;;;;;;11.05;5.65;;;;;;;23.04;98.88;99242.31;1733352;81;21138;-83
2022/06/21 19:50:30;;;;;;;7.33;5.60;;;;;;;22.93;100.00;99238.63;1704735;81;22322;-83
2022/06/21 19:52:59;;;;;;;11.83;6.65;;;;;;;22.81;100.00;99246.58;1682905;83;21054;-83
2022/06/21 19:55:46;;;;;;;9.43;6.47;;;;;;;22.69;100.00;99253.20;1720905;81;21035;-85
2022/06/21 19:58:27;;;;;;;11.00;6.53;;;;;;;22.60;100.00;99255.89;1729418;81;21559;-83
2022/06/21 20:01:18;;;;;;;12.70;6.87;;;;;;;22.54;100.00;99257.62;1710870;83;21848;-83
2022/06/21 20:03:59;;;;;;;8.85;6.62;;;;;;;22.46;100.00;99264.05;1738201;81;21107;-83
2022/06/21 20:06:40;;;;;;;9.38;6.92;;;;;;;22.35;100.00;99267.47;1725322;81;21073;-83
2022/06/21 20:09:41;;;;;;;7.80;6.87;;;;;;;22.26;100.00;99269.61;1694359;81;21109;-83
2022/06/21 20:12:17;;;;;;;9.88;7.97;;;;;;;22.18;100.00;99284.00;1731060;81;21594;-83
2022/06/21 20:14:53;;;;;;;11.30;7.90;;;;;;;22.10;100.00;99287.47;1699611;81;21329;-82
2022/06/21 20:17:34;;;;;;;14.35;8.20;;;;;;;22.05;100.00;99296.08;1689046;83;21027;-83
2022/06/21 20:20:24;;;;;;;9.50;8.03;;;;;;;22.01;100.00;99299.70;1713660;82;21536;-83
2022/06/21 20:23:09;;;;;;;9.93;7.92;;;;;;;21.96;100.00;99308.84;1700406;82;21059;-85
2022/06/21 20:25:50;;;;;;;9.10;7.53;;;;;;;21.92;100.00;99311.62;1719977;82;21785;-84
2022/06/21 20:28:41;;;;;;;8.90;7.05;;;;;;;21.89;100.00;99297.52;1707140;82;21166;-82
2022/06/21 20:31:26;;;;;;;10.43;7.27;;;;;;;21.83;100.00;99309.00;1660887;84;21081;-87
2022/06/21 20:34:04;;;;;;;7.83;6.72;;;;;;;21.74;100.00;99323.87;1699558;82;21026;-83
2022/06/21 20:36:35;;;;;;;7.95;6.65;;;;;;;21.67;100.00;99327.08;1699964;83;21157;-83
2022/06/21 20:39:10;;;;;;;7.65;6.03;;;;;;;21.66;100.00;99334.75;1709846;82;21052;-84
2022/06/21 20:41:44;;;;;;;12.80;6.65;;;;;;;21.62;100.00;99334.88;1698255;83;21176;-85
2022/06/21 20:44:25;;;;;;;8.45;6.70;;;;;;;21.56;100.00;99340.50;1702790;82;21043;-83
2022/06/21 20:47:02;;;;;;;9.33;6.65;;;;;;;21.53;100.00;99342.78;1698599;83;21062;-83
2022/06/21 20:49:27;;;;;;;8.48;6.08;;;;;;;21.50;100.00;99335.28;1699859;82;21372;-83
2022/06/21 20:51:59;;;;;;;10.40;5.70;;;;;;;21.46;100.00;99337.56;1706089;82;21054;-85
2022/06/21 20:54:40;;;;;;;6.50;5.87;;;;;;;21.42;100.00;99337.19;1699854;83;21113;-84
2022/06/21 20:57:12;;;;;;;7.37;6.65;;;;;;;21.36;100.00;99339.36;1697045;82;21066;-83
2022/06/21 20:59:56;;;;;;;10.65;6.15;;;;;;;21.29;100.00;99329.34;1658864;85;20991;-83
2022/06/21 21:02:40;;;;;;;8.70;6.33;;;;;;;21.23;100.00;99335.52;1686909;84;21014;-83
2022/06/21 21:05:16;;;;;;;6.28;5.62;;;;;;;21.17;100.00;99339.03;1691960;82;21067;-83
2022/06/21 21:07:55;;;;;;;9.18;5.97;;;;;;;21.12;100.00;99333.06;1658873;85;21953;-83
2022/06/21 21:10:57;;;;;;;10.03;6.28;;;;;;;21.07;100.00;99331.06;1682126;84;21559;-83
2022/06/21 21:13:43;;;;;;;9.85;6.03;;;;;;;21.01;100.00;99331.94;1671989;84;21054;-83
2022/06/21 21:16:36;;;;;;;7.72;5.50;;;;;;;20.92;100.00;99329.25;1675941;85;21125;-83
2022/06/21 21:19:20;;;;;;;6.60;5.35;;;;;;;20.87;100.00;99346.28;1674000;85;21049;-86
2022/06/21 21:22:12;;;;;;;8.05;5.33;;;;;;;20.83;100.00;99346.40;1677337;85;21160;-83
2022/06/21 21:24:44;;;;;;;6.12;5.53;;;;;;;20.82;100.00;99352.22;1685573;85;20983;-83
2022/06/21 21:27:15;;;;;;;5.87;5.33;;;;;;;20.84;100.00;99348.82;1704801;82;21544;-83
2022/06/21 21:29:45;;;;;;;;;;;;;;;20.85;100.00;99350.97;1689347;84;21632;-83
2022/06/21 21:32:29;;;;;;;5.83;5.28;;;;;;;20.86;100.00;99350.75;1688379;84;20171;-83
2022/06/21 21:35:34;;;;;;;6.45;4.62;;;;;;;20.82;100.00;99340.80;1684435;83;21166;-82
2022/06/21 21:38:38;;;;;;;6.12;4.40;;;;;;;20.74;100.00;99345.86;1699259;83;21080;-84
2022/06/21 21:41:26;;;;;;;4.50;4.10;;;;;;;20.64;100.00;99343.63;1683323;84;21081;-82
2022/06/21 21:43:55;;;;;;;4.42;3.80;;;;;;;20.57;100.00;99358.23;1692309;84;21059;-83
2022/06/21 21:46:30;;;;;;;3.95;3.55;;;;;;;20.51;100.00;99355.08;1690903;83;21074;-83
2022/06/21 21:49:05;;;;;;;4.62;3.67;;;;;;;20.45;100.00;99352.80;1690975;84;21155;-84
2022/06/21 21:51:53;;;;;;;3.65;3.33;;;;;;;20.39;100.00;99351.50;1697836;84;21018;-84
2022/06/21 21:54:24;;;;;;;6.53;3.50;;;;;;;20.32;100.00;99364.73;1689524;82;21607;-83
2022/06/21 21:56:55;;;;;;;3.43;3.03;;;;;;;20.20;100.00;99377.79;1688365;84;21041;-85
2022/06/21 21:59:30;;;;;;;8.73;3.40;;;;;;;20.09;100.00;99381.89;1692233;83;21172;-84
2022/06/21 22:01:58;;;;;;;3.62;3.33;;;;;;;19.91;100.00;99377.28;1688108;85;21998;-83
2022/06/21 22:04:57;;;;;;;5.00;3.25;;;;;;;19.80;100.00;99367.30;1687757;85;21256;-83
2022/06/21 22:07:41;;;;;;;3.35;2.92;;;;;;;19.69;100.00;99379.31;1687914;85;21054;-88
2022/06/21 22:10:31;;;;;;;3.50;2.50;;;;;;;19.59;100.00;99384.22;1684805;85;21484;-83
2022/06/21 22:13:04;;;;;;;2.33;2.00;;;;;;;19.51;100.00;99386.55;1687861;85;21961;-83
2022/06/21 22:15:48;;;;;;;2.58;2.37;;;;;;;19.46;100.00;99388.47;1705252;83;22036;-84
2022/06/21 22:18:38;;;;;;;3.08;2.20;;;;;;;19.42;100.00;99386.44;1716841;81;21086;-87
2022/06/21 22:21:13;;;;;;;2.27;2.10;;;;;;;19.36;100.00;99393.34;1699269;83;21054;-83
2022/06/21 22:23:51;;;;;;;2.10;1.90;;;;;;;19.28;100.00;99407.56;1711317;83;21085;-83
2022/06/21 22:26:31;;;;;;;2.83;1.60;;;;;;;19.22;100.00;99423.69;1715504;82;21532;-85
2022/06/21 22:29:04;;;;;;;3.15;1.52;;;;;;;19.12;100.00;99433.81;1715379;83;21792;-83
2022/06/21 22:31:45;;;;;;;2.72;1.70;;;;;;;19.02;100.00;99433.41;1712714;83;21062;-83
2022/06/21 22:34:21;;;;;;;2.20;1.80;;;;;;;18.93;100.00;99424.84;1713912;82;21049;-83